Time;durP1;ratioP1;P1;durP2;ratioP2;P2;SDS_P1;SDS_P2;PMS_P1;PMS_P2;Temp;Humidity;BMP_temperature;BMP_pressure;BME280_temperature;BME280_humidity;BME280_pressure;Samples;Min_cycle;Max_cycle;Signal;HPM_P1;HPM_P2
2020/12/07 00:01:13;;;;;;;53.31;32.88;;;5.00;99.90;;;9.88;96.58;99679.63;1711047;74;24914;-80
2020/12/07 00:03:33;;;;;;;60.06;37.56;;;5.00;99.90;;;9.65;95.75;99678.02;1713584;73;24511;-81
2020/12/07 00:05:53;;;;;;;57.20;37.00;;;5.10;99.90;;;9.64;95.81;99674.53;1708060;75;24961;-79
2020/12/07 00:08:11;;;;;;;57.35;36.40;;;5.10;99.90;;;9.78;96.95;99675.36;1713766;74;25039;-79
2020/12/07 00:10:29;;;;;;;56.57;36.03;;;5.10;99.90;;;9.70;96.41;99677.56;1712183;74;24505;-80
2020/12/07 00:12:47;;;;;;;60.91;37.70;;;5.10;99.90;;;9.78;97.04;99669.29;1711387;74;24535;-79
2020/12/07 00:15:11;;;;;;;58.74;36.33;;;5.10;99.90;;;9.74;97.65;99662.36;1707317;74;24441;-80
2020/12/07 00:17:28;;;;;;;57.16;35.24;;;5.10;99.90;;;9.73;96.84;99661.52;1706400;74;24513;-79
2020/12/07 00:19:44;;;;;;;61.35;36.80;;;5.10;99.90;;;9.85;96.79;99651.47;1707738;74;24446;-80
2020/12/07 00:22:01;;;;;;;57.65;36.95;;;5.10;99.90;;;9.94;97.08;99644.94;1706105;74;24458;-79
2020/12/07 00:24:17;;;;;;;59.42;38.05;;;5.20;99.90;;;9.84;96.95;99642.83;1712714;74;24909;-80
2020/12/07 00:26:38;;;;;;;63.03;37.90;;;5.20;99.90;;;9.84;97.27;99645.85;1709367;74;24989;-79
2020/12/07 00:28:58;;;;;;;57.39;36.61;;;5.20;99.90;;;9.84;97.54;99649.33;1717699;74;24491;-80
2020/12/07 00:31:15;;;;;;;59.38;37.19;;;5.20;99.90;;;9.89;97.37;99654.07;1705442;74;25108;-79
2020/12/07 00:33:36;;;;;;;61.04;37.01;;;5.20;99.90;;;10.07;97.08;99657.87;1706367;75;24455;-79
2020/12/07 00:35:55;;;;;;;57.68;36.05;;;5.20;99.90;;;10.01;97.25;99646.18;1706669;74;24902;-80
2020/12/07 00:38:16;;;;;;;51.69;32.30;;;5.20;99.90;;;9.81;96.67;99645.45;1705302;74;24576;-78
2020/12/07 00:40:32;;;;;;;57.36;35.90;;;5.20;99.90;;;9.72;95.93;99639.44;1706098;75;24504;-80
2020/12/07 00:42:48;;;;;;;54.58;35.18;;;5.20;99.90;;;9.76;97.21;99641.13;1709862;74;24875;-78
2020/12/07 00:45:05;;;;;;;57.75;36.77;;;5.20;99.90;;;9.80;97.34;99637.20;1712090;74;24508;-79
2020/12/07 00:47:21;;;;;;;58.60;37.13;;;5.20;99.90;;;9.71;97.14;99633.79;1709419;73;24435;-81
2020/12/07 00:49:40;;;;;;;58.54;36.59;;;5.20;99.90;;;9.75;97.24;99632.49;1707269;74;24433;-79
2020/12/07 00:52:00;;;;;;;54.60;36.68;;;5.10;99.90;;;9.78;97.53;99636.37;1717443;74;24374;-79
2020/12/07 00:54:18;;;;;;;50.02;32.49;;;5.10;99.90;;;9.72;97.17;99644.17;1710970;74;24485;-79
2020/12/07 00:56:37;;;;;;;53.27;34.29;;;5.10;99.90;;;9.74;96.75;99642.86;1709018;74;24461;-80
2020/12/07 00:58:53;;;;;;;51.18;33.94;;;5.10;99.90;;;9.64;96.53;99643.34;1705389;74;24443;-77
2020/12/07 01:01:11;;;;;;;52.52;34.44;;;5.10;99.90;;;9.61;96.41;99643.83;1705359;74;24409;-78
2020/12/07 01:03:29;;;;;;;54.37;34.51;;;5.10;99.90;;;9.72;97.14;99650.67;1699977;74;25030;-78
2020/12/07 01:05:48;;;;;;;49.65;32.72;;;5.10;99.90;;;9.80;97.37;99655.86;1701763;74;24453;-79
2020/12/07 01:08:05;;;;;;;53.02;35.55;;;5.10;99.90;;;9.75;96.70;99666.28;1700579;74;24444;-78
2020/12/07 01:10:29;;;;;;;54.66;35.55;;;5.00;99.90;;;9.64;96.84;99679.73;1711300;74;24503;-79
2020/12/07 01:12:46;;;;;;;55.38;35.67;;;5.10;99.90;;;9.70;96.98;99677.56;1700157;74;24421;-78
2020/12/07 01:15:02;;;;;;;52.66;35.04;;;5.10;99.90;;;9.80;97.06;99675.36;1705809;74;24458;-79
2020/12/07 01:17:23;;;;;;;53.36;35.94;;;5.10;99.90;;;9.74;96.30;99674.94;1704410;74;24446;-79
2020/12/07 01:19:42;;;;;;;52.50;34.72;;;5.10;99.90;;;9.81;97.10;99670.14;1703924;73;24905;-76
2020/12/07 01:22:02;;;;;;;55.34;36.43;;;5.00;99.90;;;9.75;96.16;99672.78;1704004;74;24391;-78
2020/12/07 01:24:20;;;;;;;57.90;36.40;;;5.00;99.90;;;9.61;97.12;99665.45;1699921;74;24457;-79
2020/12/07 01:26:37;;;;;;;55.86;35.62;;;5.00;99.90;;;9.64;96.92;99657.64;1703155;74;24465;-78
2020/12/07 01:29:00;;;;;;;54.41;33.74;;;5.00;99.90;;;9.61;96.83;99643.83;1700866;74;24574;-78
2020/12/07 01:31:18;;;;;;;57.33;36.47;;;5.00;99.90;;;9.48;95.93;99647.34;1710169;74;24478;-78
2020/12/07 01:33:38;;;;;;;56.84;35.70;;;5.00;99.90;;;9.53;97.41;99637.34;1702586;74;24465;-78
2020/12/07 01:36:03;;;;;;;55.48;35.61;;;5.00;99.90;;;9.50;97.42;99632.63;1700892;74;24443;-78
2020/12/07 01:38:21;;;;;;;55.32;34.85;;;5.00;99.90;;;9.53;97.12;99632.60;1714106;73;24907;-77
2020/12/07 01:40:38;;;;;;;57.74;36.43;;;4.90;99.90;;;9.53;97.58;99637.80;1710543;74;24982;-78
2020/12/07 01:42:55;;;;;;;58.89;36.45;;;4.90;99.90;;;9.54;97.76;99633.89;1700043;74;24370;-78
2020/12/07 01:45:12;;;;;;;57.91;36.14;;;4.90;99.90;;;9.56;97.60;99632.16;1704367;74;24525;-77
2020/12/07 01:47:30;;;;;;;55.97;34.33;;;4.90;99.90;;;9.49;97.49;99639.97;1703715;74;24998;-78
2020/12/07 01:49:51;;;;;;;59.92;36.84;;;4.90;99.90;;;9.50;96.65;99627.42;1700572;74;24425;-76
2020/12/07 01:52:09;;;;;;;56.39;36.63;;;4.90;99.90;;;9.49;97.13;99625.67;1699568;74;24926;-78
2020/12/07 01:54:26;;;;;;;57.43;35.29;;;4.90;99.90;;;9.54;97.24;99626.52;1693231;74;24488;-78
2020/12/07 01:56:43;;;;;;;61.96;37.21;;;4.90;99.90;;;9.54;97.14;99628.69;1707215;74;24532;-78
2020/12/07 01:59:02;;;;;;;57.60;37.17;;;4.90;99.90;;;9.50;97.58;99633.45;1704751;74;24422;-79
2020/12/07 02:01:21;;;;;;;59.32;37.13;;;4.90;99.90;;;9.47;98.23;99643.87;1705046;74;24432;-78
2020/12/07 02:03:41;;;;;;;49.15;30.52;;;4.90;99.90;;;9.52;97.65;99644.72;1699830;74;24395;-77
2020/12/07 02:06:05;;;;;;;60.50;38.63;;;4.90;99.90;;;9.47;97.05;99641.27;1701736;74;24594;-80
2020/12/07 02:08:22;;;;;;;63.93;38.16;;;4.90;99.90;;;9.52;97.66;99632.16;1696176;74;24518;-79
2020/12/07 02:10:47;;;;;;;54.12;34.47;;;4.90;99.90;;;9.45;97.96;99625.27;1706709;74;24432;-77
2020/12/07 02:13:06;;;;;;;59.04;37.00;;;4.90;99.90;;;9.51;97.74;99618.74;1701308;74;24469;-78
2020/12/07 02:15:25;;;;;;;63.66;36.53;;;4.90;99.90;;;9.72;98.04;99618.64;1698656;74;24521;-78
2020/12/07 02:17:42;;;;;;;60.48;37.77;;;4.90;99.90;;;9.62;97.75;99606.13;1699305;75;24519;-77
2020/12/07 02:20:03;;;;;;;54.39;33.82;;;4.90;99.90;;;9.54;98.35;99599.23;1697056;75;24435;-78
2020/12/07 02:22:22;;;;;;;59.35;36.02;;;5.00;99.90;;;9.58;97.53;99586.21;1695067;74;24433;-78
2020/12/07 02:24:57;;;;;;;58.80;35.97;;;5.00;99.90;;;9.48;97.56;99579.36;1696711;75;25087;-79
2020/12/07 02:27:20;;;;;;;52.31;32.16;;;5.00;99.90;;;9.55;97.99;99578.90;1697578;74;24396;-78
2020/12/07 02:29:36;;;;;;;58.44;36.60;;;4.90;99.90;;;9.42;97.31;99575.47;1700177;74;24471;-79
2020/12/07 02:32:17;;;;;;;46.79;25.87;;;4.90;99.90;;;9.47;97.97;99580.67;1703865;74;24431;-78
2020/12/07 02:34:35;;;;;;;46.10;27.50;;;5.00;99.90;;;9.33;97.21;99581.15;1698030;74;24439;-76
2020/12/07 02:36:52;;;;;;;56.26;36.10;;;4.90;99.90;;;9.48;97.29;99574.59;1694129;75;24512;-78
2020/12/07 02:39:10;;;;;;;59.22;35.84;;;4.90;99.90;;;9.53;97.68;99573.68;1708452;74;24389;-79
2020/12/07 02:41:30;;;;;;;55.69;33.80;;;5.00;99.90;;;9.58;98.33;99566.72;1697293;74;24477;-78
2020/12/07 02:43:49;;;;;;;60.01;34.74;;;5.00;99.90;;;9.54;97.56;99566.33;1699040;75;24485;-76
2020/12/07 02:46:06;;;;;;;59.59;36.65;;;5.00;99.90;;;9.53;97.55;99558.55;1694140;75;24445;-78
2020/12/07 02:48:25;;;;;;;62.89;38.65;;;5.00;99.90;;;9.50;98.28;99559.87;1704944;74;24899;-78
2020/12/07 02:50:43;;;;;;;59.86;36.46;;;5.00;99.90;;;9.48;98.70;99553.38;1709221;74;24433;-78
2020/12/07 02:53:01;;;;;;;59.10;34.34;;;5.00;99.90;;;9.46;98.49;99558.14;1697338;74;25028;-77
2020/12/07 02:55:22;;;;;;;57.18;34.73;;;5.00;99.90;;;9.55;97.87;99552.45;1700010;74;24583;-78
2020/12/07 02:57:48;;;;;;;55.06;32.56;;;5.00;99.90;;;9.62;98.70;99551.98;1683682;74;24456;-77
2020/12/07 03:00:10;;;;;;;56.43;35.09;;;5.10;99.90;;;9.61;97.55;99548.97;1705353;74;24382;-79
2020/12/07 03:02:28;;;;;;;56.46;35.06;;;5.00;99.90;;;9.65;97.87;99542.44;1703838;75;24393;-78
2020/12/07 03:04:46;;;;;;;42.95;26.70;;;5.10;99.90;;;9.59;97.81;99532.09;1710518;74;24978;-79
2020/12/07 03:07:03;;;;;;;59.10;34.73;;;5.00;99.90;;;9.48;97.52;99526.52;1710167;74;24539;-78
2020/12/07 03:09:30;;;;;;;57.82;34.21;;;5.00;99.90;;;9.61;98.81;99516.48;1721504;74;24435;-80
2020/12/07 03:11:50;;;;;;;42.13;25.56;;;5.10;99.90;;;9.59;98.99;99517.80;1710161;74;24956;-80
2020/12/07 03:14:07;;;;;;;51.52;32.90;;;5.10;99.90;;;9.47;97.99;99507.47;1711643;74;24481;-78
2020/12/07 03:16:26;;;;;;;55.28;34.91;;;5.10;99.90;;;9.58;99.05;99506.11;1713460;73;24464;-79
2020/12/07 03:18:44;;;;;;;49.11;31.50;;;5.10;99.90;;;9.57;98.92;99508.27;1718814;74;24933;-78
2020/12/07 03:21:02;;;;;;;55.04;35.14;;;5.10;99.90;;;9.53;98.67;99515.21;1710923;74;24420;-78
2020/12/07 03:23:21;;;;;;;49.64;33.39;;;5.10;99.90;;;9.51;99.03;99520.00;1710193;74;24527;-78
2020/12/07 03:25:42;;;;;;;53.28;35.56;;;5.10;99.90;;;9.56;99.10;99513.05;1710776;74;24861;-80
2020/12/07 03:27:58;;;;;;;48.04;31.11;;;5.10;99.90;;;9.54;98.92;99515.66;1709973;74;24916;-80
2020/12/07 03:30:17;;;;;;;50.81;31.32;;;5.20;99.90;;;9.65;98.95;99511.67;1717153;74;24448;-79
2020/12/07 03:32:35;;;;;;;51.32;33.16;;;5.10;99.90;;;9.69;98.71;99515.53;1720214;73;24814;-78
2020/12/07 03:34:52;;;;;;;54.40;37.03;;;5.10;99.90;;;9.68;99.28;99521.63;1712277;74;24460;-78
2020/12/07 03:37:10;;;;;;;49.90;34.84;;;5.20;99.90;;;9.55;99.08;99513.47;1713527;73;24441;-78
2020/12/07 03:39:28;;;;;;;46.51;29.64;;;5.20;99.90;;;9.64;99.47;99516.46;1707883;74;24395;-77
2020/12/07 03:41:51;;;;;;;49.72;32.72;;;5.20;99.90;;;9.49;98.56;99507.45;1715299;74;24399;-79
2020/12/07 03:44:11;;;;;;;50.30;32.76;;;5.20;99.90;;;9.69;99.18;99498.64;1709931;74;24430;-80
2020/12/07 03:46:31;;;;;;;45.31;29.94;;;5.20;99.90;;;9.70;99.07;99500.81;1720107;74;24983;-80
2020/12/07 03:48:53;;;;;;;44.60;30.70;;;5.20;99.90;;;9.74;98.83;99506.40;1712459;74;24463;-78
2020/12/07 03:51:15;;;;;;;44.30;29.97;;;5.20;99.90;;;9.76;98.56;99510.73;1710029;74;24456;-79
2020/12/07 03:53:36;;;;;;;44.52;31.38;;;5.20;99.90;;;9.72;98.71;99507.72;1709307;74;24378;-77
2020/12/07 03:55:57;;;;;;;44.14;29.35;;;5.20;99.90;;;9.77;99.48;99505.11;1714965;74;24945;-80
2020/12/07 03:58:18;;;;;;;45.69;31.25;;;5.20;99.90;;;9.70;98.93;99505.59;1716562;73;24448;-79
2020/12/07 04:00:36;;;;;;;42.25;27.94;;;5.20;99.90;;;9.63;99.26;99509.52;1710803;74;24548;-78
2020/12/07 04:05:28;;;;;;;42.18;28.57;;;5.20;99.90;;;9.91;99.46;99515.80;1747734;72;25209;-79
2020/12/07 04:07:44;;;;;;;42.56;30.62;;;5.20;99.90;;;9.67;99.09;99519.03;1701672;75;24539;-78
2020/12/07 04:10:01;;;;;;;40.31;28.39;;;5.20;99.90;;;9.80;99.11;99520.68;1700966;75;24456;-78
2020/12/07 04:12:21;;;;;;;43.97;29.85;;;5.20;99.90;;;9.86;99.10;99524.09;1693342;75;24890;-78
2020/12/07 04:14:40;;;;;;;44.92;30.54;;;5.30;99.90;;;9.94;98.92;99531.37;1708137;75;24929;-79
2020/12/07 04:16:58;;;;;;;45.33;29.65;;;5.30;99.90;;;9.90;98.61;99538.78;1700026;75;24928;-79
2020/12/07 04:19:21;;;;;;;43.91;29.71;;;5.30;99.90;;;9.85;98.88;99539.25;1691114;75;24444;-80
2020/12/07 04:21:35;;;;;;;44.95;29.01;;;5.30;99.90;;;9.78;99.44;99537.59;1689830;75;24505;-79
2020/12/07 04:23:52;;;;;;;44.94;30.79;;;5.40;99.90;;;9.79;98.72;99532.80;1692448;75;24444;-79
2020/12/07 04:26:10;;;;;;;44.78;30.31;;;5.30;99.90;;;9.68;99.88;99529.42;1693668;75;24431;-78
2020/12/07 04:28:30;;;;;;;45.65;31.90;;;5.30;99.90;;;9.68;99.32;99524.22;1692704;75;25383;-78
2020/12/07 04:30:51;;;;;;;42.59;29.67;;;5.30;99.90;;;9.70;99.14;99521.19;1705557;75;24441;-79
2020/12/07 04:33:08;;;;;;;46.77;32.34;;;5.30;99.90;;;9.65;99.22;99521.64;1704475;75;24881;-79
2020/12/07 04:35:25;;;;;;;51.73;32.47;;;5.30;99.90;;;9.61;99.22;99516.03;1695672;75;24444;-78
2020/12/07 04:37:43;;;;;;;43.57;29.79;;;5.30;99.90;;;9.67;99.42;99516.44;1703141;75;24544;-78
2020/12/07 04:40:00;;;;;;;49.26;32.56;;;5.30;99.90;;;9.59;98.91;99507.83;1698284;75;24536;-79
2020/12/07 04:42:19;;;;;;;31.30;20.29;;;5.20;99.90;;;9.72;99.52;99511.61;1691957;75;24773;-78
2020/12/07 04:44:37;;;;;;;44.38;30.29;;;5.20;99.90;;;9.48;98.46;99504.02;1695943;75;24492;-78
2020/12/07 04:46:55;;;;;;;44.29;30.44;;;5.20;99.90;;;9.52;98.93;99505.70;1698011;75;24508;-78
2020/12/07 04:49:17;;;;;;;43.00;29.91;;;5.20;99.90;;;9.44;99.70;99495.80;1701268;75;24474;-78
2020/12/07 04:51:39;;;;;;;49.20;32.21;;;5.20;99.90;;;9.45;99.19;99495.37;1701820;75;24976;-78
2020/12/07 04:53:58;;;;;;;50.00;33.22;;;5.20;99.90;;;9.46;99.62;99503.16;1697995;75;24491;-77
2020/12/07 04:56:15;;;;;;;50.56;33.23;;;5.10;99.90;;;9.57;99.35;99496.57;1699067;75;24510;-78
2020/12/07 04:58:35;;;;;;;49.16;33.00;;;5.20;99.90;;;9.52;99.42;99484.05;1691822;75;24477;-78
2020/12/07 05:00:52;;;;;;;50.29;34.62;;;5.20;99.90;;;9.50;99.66;99475.42;1699825;75;24456;-78
2020/12/07 05:03:10;;;;;;;46.70;31.67;;;5.10;99.90;;;9.45;99.96;99479.36;1658707;76;24891;-79
2020/12/07 05:05:27;;;;;;;50.11;32.14;;;5.10;99.90;;;9.45;99.90;99479.36;1682475;74;24509;-78
2020/12/07 05:07:49;;;;;;;43.70;29.05;;;5.20;99.90;;;9.27;99.53;99475.98;1656309;76;24444;-78
2020/12/07 05:10:12;;;;;;;45.32;31.83;;;5.10;99.90;;;9.43;99.76;99482.39;1707003;75;24514;-77
2020/12/07 05:12:37;;;;;;;49.85;33.82;;;5.10;99.90;;;9.48;99.59;99477.16;1694324;74;24466;-79
2020/12/07 05:14:51;;;;;;;51.70;35.11;;;5.10;99.90;;;9.48;99.35;99481.92;1690331;74;24501;-81
2020/12/07 05:17:30;;;;;;;51.06;32.39;;;5.10;99.90;;;9.53;100.00;99481.89;1694375;75;24534;-78
2020/12/07 05:19:47;;;;;;;54.96;36.08;;;5.20;99.90;;;9.40;99.91;99485.44;1701019;75;24431;-79
2020/12/07 05:22:16;;;;;;;52.98;35.60;;;5.20;99.90;;;9.61;100.00;99487.90;1687109;75;24559;-77
2020/12/07 05:24:40;;;;;;;58.86;39.56;;;5.20;99.90;;;9.35;100.00;99479.41;1687404;75;24509;-79
2020/12/07 05:27:12;;;;;;;;;;;;;;;;;;;;;
2020/12/07 05:29:33;;;;;;;50.83;34.60;;;5.20;99.90;;;9.56;100.00;99476.24;1685791;75;24425;-77
2020/12/07 05:31:51;;;;;;;60.67;37.84;;;5.20;99.90;;;9.33;99.68;99464.26;1702871;75;24431;-79
2020/12/07 05:34:11;;;;;;;56.91;38.22;;;5.20;99.90;;;9.53;100.00;99459.34;1700744;75;24444;-79
2020/12/07 05:36:32;;;;;;;59.37;39.29;;;5.20;99.90;;;9.53;100.00;99458.05;1703296;75;24453;-79
2020/12/07 05:38:51;;;;;;;54.06;36.29;;;5.20;99.90;;;9.56;100.00;99458.05;1696223;75;24414;-78
2020/12/07 05:41:10;;;;;;;58.35;37.86;;;5.20;99.90;;;9.51;100.00;99465.44;1694052;75;24450;-77
2020/12/07 05:43:30;;;;;;;63.00;40.00;;;5.20;99.90;;;9.46;100.00;99465.48;1706707;73;24456;-77
2020/12/07 05:45:51;;;;;;;59.20;36.56;;;5.20;99.90;;;9.49;100.00;99475.84;1695308;75;24420;-80
2020/12/07 05:48:12;;;;;;;61.46;39.12;;;5.20;99.90;;;9.52;100.00;99468.45;1688973;75;24983;-77
2020/12/07 05:50:33;;;;;;;51.64;32.81;;;5.20;99.90;;;9.54;100.00;99475.81;1697817;75;24996;-79
2020/12/07 05:52:54;;;;;;;51.64;34.72;;;5.20;99.90;;;9.51;99.78;99484.92;1688409;75;24485;-78
2020/12/07 05:55:13;;;;;;;62.63;38.30;;;5.20;99.90;;;9.56;100.00;99485.77;1699557;75;24926;-79
2020/12/07 05:57:32;;;;;;;59.68;37.16;;;5.20;99.90;;;9.60;100.00;99488.75;1698461;75;24539;-79
2020/12/07 05:59:52;;;;;;;48.69;31.66;;;5.20;99.90;;;9.48;100.00;99493.62;1689093;75;24451;-79
2020/12/07 06:02:13;;;;;;;50.46;32.82;;;5.20;99.90;;;9.53;99.58;99497.02;1702436;75;24452;-77
2020/12/07 06:04:32;;;;;;;53.89;34.11;;;5.20;99.90;;;9.63;99.41;99493.92;1700413;74;24877;-79
2020/12/07 06:06:52;;;;;;;56.11;37.46;;;5.20;99.90;;;9.72;99.47;99496.02;1711571;74;24524;-80
2020/12/07 06:09:14;;;;;;;46.57;32.03;;;5.30;99.90;;;9.59;100.00;99489.21;1706557;74;24546;-77
2020/12/07 06:11:38;;;;;;;52.94;35.62;;;5.30;99.90;;;9.58;99.92;99492.66;1707201;74;24851;-78
2020/12/07 06:13:58;;;;;;;48.73;32.71;;;5.30;99.90;;;9.78;99.84;99506.39;1707471;74;24981;-78
2020/12/07 06:16:16;;;;;;;50.36;34.83;;;5.30;99.90;;;9.74;99.23;99511.17;1707179;74;24479;-79
2020/12/07 06:18:48;;;;;;;51.25;35.12;;;5.30;99.90;;;9.41;100.00;99511.41;1714547;74;25199;-79
2020/12/07 06:21:10;;;;;;;49.76;31.31;;;5.30;99.90;;;9.69;100.00;99512.94;1702429;74;24464;-80
2020/12/07 06:23:45;;;;;;;47.77;34.17;;;5.30;99.90;;;9.55;99.97;99517.38;1703114;74;24913;-79
2020/12/07 06:26:07;;;;;;;47.37;31.34;;;5.30;99.90;;;9.58;100.00;99524.30;1709893;74;24459;-79
2020/12/07 06:28:34;;;;;;;48.44;33.66;;;5.30;99.90;;;9.65;99.79;99511.25;1701204;74;24466;-82
2020/12/07 06:30:53;;;;;;;44.20;31.31;;;5.30;99.90;;;9.81;99.25;99514.16;1706111;74;24529;-78
2020/12/07 06:33:12;;;;;;;43.84;30.09;;;5.30;99.90;;;9.74;98.71;99516.80;1710479;74;24450;-79
2020/12/07 06:36:11;;;;;;;48.48;34.48;;;5.30;99.90;;;9.79;99.08;99518.50;1704096;74;24484;-78
2020/12/07 06:39:32;;;;;;;44.98;31.65;;;5.30;99.90;;;9.88;99.48;99514.52;1711865;74;24427;-79
2020/12/07 06:41:50;;;;;;;42.15;28.62;;;5.30;99.90;;;9.76;98.67;99510.73;1702549;74;24454;-78
2020/12/07 06:44:14;;;;;;;43.38;31.88;;;5.30;99.90;;;9.70;98.74;99507.31;1700382;74;24889;-76
2020/12/07 06:46:55;;;;;;;43.55;31.61;;;5.30;99.90;;;9.60;98.88;99492.65;1704763;74;24926;-79
2020/12/07 06:49:13;;;;;;;42.93;32.40;;;5.30;99.90;;;9.77;99.40;99476.52;1700352;74;24925;-77
2020/12/07 06:51:39;;;;;;;45.50;32.62;;;5.30;99.90;;;9.69;98.99;99479.61;1706535;74;24492;-78
2020/12/07 06:54:13;;;;;;;48.77;34.74;;;5.30;99.90;;;9.84;99.50;99474.27;1702422;74;24398;-79
2020/12/07 06:56:27;;;;;;;44.55;31.23;;;5.30;99.90;;;9.68;99.82;99469.64;1705658;74;24430;-79
2020/12/07 06:58:46;;;;;;;49.16;34.31;;;5.30;99.90;;;9.62;99.14;99474.89;1709039;74;24439;-76
2020/12/07 07:01:34;;;;;;;47.71;33.46;;;5.30;99.90;;;9.74;99.23;99476.08;1706945;74;24435;-80
2020/12/07 07:03:55;;;;;;;46.12;31.98;;;5.40;99.90;;;9.75;99.73;99469.16;1703680;74;24996;-77
2020/12/07 07:06:26;;;;;;;39.62;26.75;;;5.40;99.90;;;9.67;99.52;99482.65;1697362;74;24476;-78
2020/12/07 07:08:45;;;;;;;46.69;31.32;;;5.40;99.90;;;9.55;99.28;99491.84;1682880;75;24881;-78
2020/12/07 07:11:08;;;;;;;46.60;32.80;;;5.30;99.90;;;9.77;99.12;99506.41;1682648;75;24461;-77
2020/12/07 07:13:27;;;;;;;46.11;32.33;;;5.30;99.90;;;9.85;100.00;99495.48;1686326;75;24436;-78
2020/12/07 07:15:45;;;;;;;50.02;33.92;;;5.40;99.90;;;9.70;100.00;99495.62;1690756;74;24945;-79
2020/12/07 07:18:08;;;;;;;44.80;32.82;;;5.40;99.90;;;9.65;100.00;99501.28;1695160;73;24371;-77
2020/12/07 07:20:34;;;;;;;47.10;33.30;;;5.40;99.90;;;9.74;99.86;99498.17;1686264;75;24449;-79
2020/12/07 07:22:52;;;;;;;44.83;33.04;;;5.40;99.90;;;9.72;100.00;99502.52;1685248;75;25002;-78
2020/12/07 07:25:29;;;;;;;44.94;31.18;;;5.40;99.90;;;9.77;100.00;99510.30;1695581;75;24869;-78
2020/12/07 07:30:34;;;;;;;35.82;24.50;;;5.40;99.90;;;9.73;99.91;99511.19;1668526;75;24583;-80
2020/12/07 07:32:57;;;;;;;36.80;26.77;;;5.40;99.90;;;9.75;99.66;99502.95;1691897;75;24988;-78
2020/12/07 07:35:16;;;;;;;38.16;28.30;;;5.40;99.90;;;9.83;99.71;99516.30;1688710;75;24489;-78
2020/12/07 07:37:38;;;;;;;36.66;28.05;;;5.40;99.90;;;9.82;100.00;99508.51;1689835;75;24438;-77
2020/12/07 07:43:00;;;;;;;38.07;26.99;;;5.40;99.90;;;10.08;99.08;99515.28;1722920;72;25829;-79
2020/12/07 07:48:11;;;;;;;38.06;27.70;;;5.40;99.90;;;10.10;98.77;99520.00;1701151;73;25247;-78
2020/12/07 07:53:37;;;;;;;39.15;27.93;;;5.40;99.90;;;10.25;99.35;99526.81;1740157;72;25759;-80
2020/12/07 07:59:10;;;;;;;42.83;29.64;;;5.40;99.90;;;10.26;98.95;99533.30;1739209;72;25380;-80
2020/12/07 08:17:08;;;;;;;37.00;27.10;;;5.40;99.90;;;9.90;98.81;99560.02;1721974;73;24445;-80
2020/12/07 08:19:29;;;;;;;33.11;24.26;;;5.40;99.90;;;9.94;99.85;99553.93;1726525;73;24502;-78
2020/12/07 08:21:46;;;;;;;35.80;26.71;;;5.40;99.90;;;9.97;98.52;99562.58;1717567;73;25032;-81
2020/12/07 08:24:09;;;;;;;36.40;25.48;;;5.40;99.90;;;10.01;98.94;99560.79;1683348;75;25066;-79
2020/12/07 08:26:31;;;;;;;34.42;24.86;;;5.40;99.90;;;10.01;98.51;99560.36;1717719;73;24539;-80
2020/12/07 08:28:51;;;;;;;33.24;23.65;;;5.50;99.90;;;10.09;99.01;99564.23;1719554;73;24492;-79
2020/12/07 08:31:16;;;;;;;30.80;21.10;;;5.50;99.90;;;9.95;98.56;99567.34;1719968;73;24461;-80
2020/12/07 08:33:33;;;;;;;28.56;19.70;;;5.50;99.90;;;9.87;98.39;99568.70;1719128;73;24456;-79
2020/12/07 08:35:51;;;;;;;27.06;21.19;;;5.50;99.90;;;9.98;97.98;99561.69;1718876;73;24884;-81
2020/12/07 08:38:12;;;;;;;30.25;21.45;;;5.50;99.90;;;10.05;98.40;99578.11;1719862;73;24480;-77
2020/12/07 08:40:31;;;;;;;24.61;18.58;;;5.50;99.90;;;10.02;98.16;99572.94;1716193;73;24988;-81
2020/12/07 08:42:49;;;;;;;25.12;19.44;;;5.50;99.90;;;9.86;98.06;99570.89;1715326;73;24492;-82
2020/12/07 08:45:06;;;;;;;22.34;17.57;;;5.50;99.90;;;9.98;98.26;99581.19;1715594;73;24554;-81
2020/12/07 08:47:24;;;;;;;27.97;21.85;;;5.50;99.90;;;10.00;98.11;99583.36;1720108;73;24438;-82
2020/12/07 08:49:50;;;;;;;22.02;14.35;;;5.50;99.90;;;9.98;99.11;99586.39;1723368;73;25056;-79
2020/12/07 08:52:10;;;;;;;21.93;15.33;;;5.50;99.90;;;9.77;98.15;99585.23;1724034;73;24389;-80
2020/12/07 08:54:26;;;;;;;23.20;16.63;;;5.50;99.90;;;9.80;98.53;99586.97;1720716;73;24566;-79
2020/12/07 08:56:42;;;;;;;26.49;21.24;;;5.50;99.90;;;9.83;98.32;99586.48;1718638;73;24468;-79
2020/12/07 09:01:51;;;;;;;30.53;24.71;;;5.40;99.90;;;10.03;97.41;99582.03;1787125;69;25367;-81
2020/12/07 09:04:10;;;;;;;32.19;24.64;;;5.40;99.90;;;9.76;99.59;99596.94;1776101;70;24991;-80
2020/12/07 09:06:25;;;;;;;34.53;25.16;;;5.40;99.90;;;9.74;98.59;99594.35;1770356;71;24523;-79
2020/12/07 09:08:42;;;;;;;31.99;26.15;;;5.30;99.90;;;9.71;98.95;99605.20;1765714;71;24458;-81
2020/12/07 09:11:00;;;;;;;30.72;23.08;;;5.30;99.90;;;9.78;98.87;99609.08;1771850;71;24494;-81
2020/12/07 09:13:17;;;;;;;34.63;28.09;;;5.30;99.90;;;9.66;98.41;99607.83;1774104;70;24481;-79
2020/12/07 09:15:34;;;;;;;38.26;29.36;;;5.30;99.90;;;9.80;98.71;99610.36;1775245;70;24452;-82
2020/12/07 09:17:49;;;;;;;40.35;32.10;;;5.30;99.90;;;9.83;99.07;99609.88;1766681;71;24442;-82
2020/12/07 09:20:17;;;;;;;40.71;31.67;;;5.30;99.90;;;9.63;99.18;99605.25;1773070;71;24480;-78
2020/12/07 09:22:33;;;;;;;31.04;24.90;;;5.30;99.90;;;9.82;99.00;99608.17;1766470;71;24520;-79
2020/12/07 09:24:50;;;;;;;41.02;31.43;;;5.30;99.90;;;9.64;98.84;99612.62;1793319;70;24996;-81
2020/12/07 09:27:06;;;;;;;35.90;24.56;;;5.30;99.90;;;9.67;98.70;99613.47;1772941;71;24469;-81
2020/12/07 09:29:22;;;;;;;29.90;21.97;;;5.30;99.90;;;9.50;98.32;99613.13;1766663;71;24521;-79
2020/12/07 09:31:39;;;;;;;38.11;28.12;;;5.30;99.90;;;9.46;98.79;99607.50;1763381;71;24603;-79
2020/12/07 09:33:55;;;;;;;40.00;30.08;;;5.30;99.90;;;9.45;99.06;99609.69;1772025;71;24433;-81
2020/12/07 09:36:11;;;;;;;35.19;26.32;;;5.30;99.90;;;9.60;99.50;99612.19;1767218;71;24432;-77
2020/12/07 09:38:27;;;;;;;33.78;25.33;;;5.30;99.90;;;9.58;98.54;99607.00;1762775;71;24986;-77
2020/12/07 09:40:43;;;;;;;37.81;28.84;;;5.30;99.90;;;9.57;98.76;99618.70;1774145;71;24422;-78
2020/12/07 09:43:00;;;;;;;41.64;30.85;;;5.30;99.90;;;9.51;99.01;99617.45;1773251;70;24425;-76
2020/12/07 09:45:18;;;;;;;41.34;30.62;;;5.30;99.90;;;9.41;99.48;99624.42;1781830;71;24535;-77
2020/12/07 09:47:35;;;;;;;30.01;20.87;;;5.30;99.90;;;9.47;99.37;99617.89;1766548;71;24530;-78
2020/12/07 09:49:51;;;;;;;38.23;27.84;;;5.20;99.90;;;9.39;99.05;99621.41;1768886;70;25006;-75
2020/12/07 09:52:08;;;;;;;35.53;26.01;;;5.30;99.90;;;9.42;99.13;99628.73;1768831;71;24521;-75
2020/12/07 09:54:24;;;;;;;36.77;24.68;;;5.20;99.90;;;9.42;98.98;99628.73;1771390;70;24410;-75
2020/12/07 09:56:41;;;;;;;45.86;33.63;;;5.20;99.90;;;9.32;100.00;99630.08;1769304;71;24449;-75
2020/12/07 09:58:58;;;;;;;46.55;33.58;;;5.30;99.90;;;9.59;99.50;99624.34;1771770;70;24927;-76
2020/12/07 10:01:16;;;;;;;41.52;30.00;;;5.30;99.90;;;9.52;99.75;99627.83;1767751;71;25047;-76
2020/12/07 10:03:34;;;;;;;50.27;36.05;;;5.30;99.90;;;9.39;98.78;99626.15;1781295;71;25063;-76
2020/12/07 10:05:50;;;;;;;49.41;35.80;;;5.30;99.90;;;9.39;99.87;99631.80;1767443;70;24535;-77
2020/12/07 10:08:07;;;;;;;36.80;23.18;;;5.30;99.90;;;9.62;99.99;99629.52;1772527;70;24553;-76
2020/12/07 10:10:22;;;;;;;45.17;32.35;;;5.30;99.90;;;9.32;99.08;99630.08;1775127;71;24895;-76
2020/12/07 10:12:41;;;;;;;48.02;34.77;;;5.30;99.90;;;9.59;99.28;99628.24;1768269;71;24535;-77
2020/12/07 10:14:58;;;;;;;51.75;34.59;;;5.30;99.90;;;9.58;100.00;99636.89;1764637;71;24509;-77
2020/12/07 10:17:15;;;;;;;44.20;32.49;;;5.30;99.90;;;9.72;98.96;99629.88;1773845;71;24438;-78
2020/12/07 10:19:34;;;;;;;37.76;26.79;;;5.30;99.90;;;9.62;98.69;99628.65;1775448;71;24651;-75
2020/12/07 10:21:50;;;;;;;50.38;33.97;;;5.30;99.90;;;9.66;98.41;99638.17;1771525;71;24482;-74
2020/12/07 10:24:08;;;;;;;49.62;34.13;;;5.30;99.90;;;9.71;98.87;99633.36;1772478;70;24461;-77
2020/12/07 10:26:28;;;;;;;40.97;28.35;;;5.30;99.90;;;9.54;98.77;99636.48;1770071;71;24539;-77